Time;durP1;ratioP1;P1;durP2;ratioP2;P2;SDS_P1;SDS_P2;PMS_P1;PMS_P2;Temp;Humidity;BMP_temperature;BMP_pressure;BME280_temperature;BME280_humidity;BME280_pressure;Samples;Min_cycle;Max_cycle;Signal;HPM_P1;HPM_P2
2022/12/26 00:02:02;;;;;;;;;4.00;4.00;;;;;15.29;100.00;100895.75;5011179;28;45665;-87
2022/12/26 00:04:28;;;;;;;;;3.00;2.00;;;;;15.24;100.00;100896.44;4994333;28;45940;-86
2022/12/26 00:06:53;;;;;;;;;3.67;2.33;;;;;15.25;100.00;100892.59;5001354;28;45596;-85
2022/12/26 00:09:34;;;;;;;;;2.67;2.33;;;;;15.06;100.00;100852.31;5002005;28;45449;-86
2022/12/26 00:11:59;;;;;;;;;2.67;2.67;;;;;15.30;100.00;100898.25;4993639;28;45844;-86
2022/12/26 00:14:25;;;;;;;;;3.00;2.00;;;;;15.26;100.00;100897.03;5008779;28;45569;-86
2022/12/26 00:16:51;;;;;;;;;3.00;1.33;;;;;15.24;100.00;100901.97;5017809;28;45313;-86
2022/12/26 00:19:16;;;;;;;;;3.33;1.00;;;;;15.09;100.00;100873.94;4994309;28;47258;-86
2022/12/26 00:21:42;;;;;;;;;2.00;2.00;;;;;15.05;100.00;100872.72;4986137;28;45801;-86
2022/12/26 00:24:10;;;;;;;;;1.00;1.00;;;;;15.17;100.00;100892.94;4977456;28;45831;-86
2022/12/26 00:26:37;;;;;;;;;1.00;1.00;;;;;15.11;100.00;100889.19;5005715;28;45856;-86
2022/12/26 00:29:03;;;;;;;;;1.33;0.33;;;;;15.04;100.00;100882.09;4989699;28;45432;-85
2022/12/26 00:31:34;;;;;;;;;4.00;1.33;;;;;15.09;100.00;100879.44;4980208;28;45646;-84
2022/12/26 00:34:01;;;;;;;;;1.00;1.00;;;;;15.29;100.00;100913.16;4996489;28;45460;-86
2022/12/26 00:36:29;;;;;;;;;3.00;1.67;;;;;15.06;100.00;100868.88;4984450;28;45869;-86
2022/12/26 00:38:58;;;;;;;;;3.00;2.00;;;;;15.14;100.00;100910.00;5005411;28;45398;-85
2022/12/26 00:41:28;;;;;;;;;3.67;2.67;;;;;15.09;100.00;100896.03;4986907;28;45423;-86
2022/12/26 00:43:54;;;;;;;;;3.67;3.67;;;;;15.06;100.00;100879.91;4988972;28;45443;-85
2022/12/26 00:46:21;;;;;;;;;3.67;2.33;;;;;15.20;100.00;100914.56;4983503;28;45910;-85
2022/12/26 00:48:46;;;;;;;;;4.00;3.00;;;;;15.14;100.00;100910.81;4994179;28;45894;-86
2022/12/26 00:51:12;;;;;;;;;8.00;5.00;;;;;15.13;100.00;100906.38;5012680;28;45436;-86
2022/12/26 00:53:38;;;;;;;;;6.00;5.00;;;;;15.03;100.00;100891.44;5002766;28;45710;-85
2022/12/26 00:56:04;;;;;;;;;2.33;2.00;;;;;14.95;100.00;100879.66;4983300;28;46715;-84
2022/12/26 00:58:30;;;;;;;;;6.33;2.00;;;;;14.94;100.00;100875.22;4998824;28;46275;-85
2022/12/26 01:01:05;;;;;;;;;5.67;4.00;;;;;15.22;100.00;100906.88;4988035;28;45412;-83
2022/12/26 01:03:31;;;;;;;;;5.33;4.00;;;;;15.25;100.00;100902.81;5010112;28;45467;-85
2022/12/26 01:05:56;;;;;;;;;6.33;5.00;;;;;15.04;100.00;100882.09;4992593;28;45555;-84
2022/12/26 01:08:22;;;;;;;;;8.00;5.00;;;;;15.07;100.00;100876.09;4973840;28;45442;-87
2022/12/26 01:10:48;;;;;;;;;7.00;4.67;;;;;15.16;100.00;100896.78;4995181;28;45373;-86
2022/12/26 01:13:14;;;;;;;;;4.67;3.67;;;;;15.25;100.00;100928.50;4995320;28;45553;-85
2022/12/26 01:15:46;;;;;;;;;3.00;3.00;;;;;15.24;100.00;100937.88;5004978;28;46279;-85
2022/12/26 01:18:11;;;;;;;;;3.33;3.33;;;;;14.98;100.00;100911.47;4989418;28;47839;-85
2022/12/26 01:20:37;;;;;;;;;6.67;4.00;;;;;15.04;100.00;100926.28;5007753;28;45630;-84
2022/12/26 01:23:02;;;;;;;;;4.00;3.00;;;;;15.07;100.00;100942.38;4982196;28;45386;-84
2022/12/26 01:25:28;;;;;;;;;4.00;3.00;;;;;15.00;100.00;100940.56;4983679;28;45845;-85
2022/12/26 01:27:53;;;;;;;;;8.67;8.33;;;;;15.03;100.00;100943.91;4992021;28;47007;-83
2022/12/26 01:30:19;;;;;;;;;11.33;7.00;;;;;14.92;100.00;100918.78;5000012;28;45752;-85
2022/12/26 01:32:45;;;;;;;;;7.67;5.00;;;;;14.96;100.00;100913.66;4976392;28;45517;-85
2022/12/26 01:35:10;;;;;;;;;6.00;4.00;;;;;15.02;100.00;100922.91;5007751;28;45392;-84
2022/12/26 01:37:36;;;;;;;;;4.33;4.00;;;;;14.88;100.00;100906.53;4976705;28;46669;-85
2022/12/26 01:40:02;;;;;;;;;4.33;4.33;;;;;14.97;100.00;100937.41;4987891;28;45753;-84
2022/12/26 01:42:36;;;;;;;;;4.67;2.33;;;;;15.00;100.00;100954.38;4999271;28;45539;-85
2022/12/26 01:45:16;;;;;;;;;8.00;6.00;;;;;14.89;100.00;100952.38;4978260;28;46904;-84
2022/12/26 01:47:48;;;;;;;;;4.00;3.00;;;;;14.90;100.00;100964.28;4979632;28;47233;-86
2022/12/26 01:50:25;;;;;;;;;5.00;3.33;;;;;14.79;100.00;100946.56;4986624;28;45428;-85
2022/12/26 01:52:52;;;;;;;;;5.67;4.33;;;;;14.95;100.00;100983.75;4965612;28;45531;-84
2022/12/26 01:55:21;;;;;;;;;6.67;4.33;;;;;14.83;100.00;100972.66;4978433;28;45726;-85
2022/12/26 01:57:53;;;;;;;;;4.00;2.00;;;;;14.90;100.00;100989.16;4974936;28;45477;-85
2022/12/26 02:00:19;;;;;;;;;0.00;0.00;;;;;14.80;100.00;100973.94;4988880;28;45377;-84
2022/12/26 02:05:33;;;;;;;;;5.00;2.00;;;;;14.89;100.00;100996.56;4982393;28;45695;-83
2022/12/26 02:08:06;;;;;;;;;8.00;3.33;;;;;14.80;100.00;100990.50;4978969;28;46204;-82
2022/12/26 02:10:55;;;;;;;;;3.00;2.00;;;;;14.95;100.00;101000.31;4983422;28;45422;-83
2022/12/26 02:13:21;;;;;;;;;3.00;3.00;;;;;14.60;100.00;100941.03;4977966;28;45449;-84
2022/12/26 02:15:47;;;;;;;;;3.00;2.00;;;;;14.74;100.00;100969.34;4991177;28;45989;-84
2022/12/26 02:18:12;;;;;;;;;6.33;4.00;;;;;14.90;100.00;101000.19;4981681;28;45512;-84
2022/12/26 02:21:19;;;;;;;;;4.67;4.33;;;;;14.92;100.00;100976.78;5011583;28;45806;-85
2022/12/26 02:24:15;;;;;;;;;4.00;3.00;;;;;14.88;100.00;100978.34;4992906;28;45506;-84
2022/12/26 02:27:18;;;;;;;;;4.33;2.67;;;;;14.89;100.00;100976.41;4999063;28;45348;-83
2022/12/26 02:30:06;;;;;;;;;2.67;2.33;;;;;14.67;100.00;100946.53;4970548;28;46477;-85
2022/12/26 02:33:02;;;;;;;;;1.67;1.00;;;;;14.91;100.00;100997.19;4979257;28;45454;-83
2022/12/26 02:36:11;;;;;;;;;3.00;2.00;;;;;14.86;100.00;101002.56;4995592;28;45424;-85
2022/12/26 02:42:41;;;;;;;;;3.00;3.00;;;;;14.84;100.00;100999.19;4934485;28;46129;-84
2022/12/26 03:19:07;;;;;;;;;3.00;1.75;;;;;14.25;100.00;100927.88;4970692;28;45831;-84
2022/12/26 03:21:45;;;;;;;;;2.00;2.00;;;;;14.41;100.00;100962.28;4973545;28;45673;-82
2022/12/26 03:27:46;;;;;;;;;1.33;1.33;;;;;14.38;100.00;100968.25;4968431;28;45788;-80
2022/12/26 03:33:04;;;;;;;;;2.00;2.00;;;;;14.24;100.00;100955.69;4978969;28;45496;-79
2022/12/26 03:35:34;;;;;;;;;0.50;0.50;;;;;14.39;100.00;100982.91;4968316;28;45984;-78
2022/12/26 03:38:15;;;;;;;;;1.67;1.67;;;;;14.38;100.00;100987.56;4967701;28;45465;-79
2022/12/26 04:46:58;;;;;;;;;;;;;;;;;;;;;
2022/12/26 04:50:23;;;;;;;;;;;;;;;;;;;;;
2022/12/26 05:10:32;;;;;;;;;0.00;0.00;;;;;14.06;100.00;101011.66;4807467;29;45414;-85
2022/12/26 05:13:55;;;;;;;;;0.00;0.00;;;;;14.25;100.00;101057.53;4883908;28;45497;-86
2022/12/26 05:59:43;;;;;;;;;;;;;;;;;;;;;
2022/12/26 06:07:12;;;;;;;;;2.00;0.67;;;;;13.92;100.00;101110.16;4807350;29;45888;-86
2022/12/26 06:42:53;;;;;;;;;1.33;0.67;;;;;13.41;100.00;101112.78;4713788;30;45624;-82
2022/12/26 06:46:06;;;;;;;;;0.00;0.00;;;;;13.24;100.00;101101.38;4769934;28;45768;-82
2022/12/26 06:48:46;;;;;;;;;1.67;0.67;;;;;13.19;100.00;101103.13;4914198;28;45624;-80
2022/12/26 08:24:35;;;;;;;;;2.67;1.00;;;;;14.26;100.00;101234.94;4826663;29;45858;-85
2022/12/26 08:34:53;;;;;;;;;;;;;;;;;;;;;
2022/12/26 08:41:51;;;;;;;;;;;;;;;;;;;;;
2022/12/26 09:17:30;;;;;;;;;;;;;;;;;;;;;
2022/12/26 09:56:46;;;;;;;;;;;;;;;;;;;;;
2022/12/26 10:00:34;;;;;;;;;;;;;;;;;;;;;
2022/12/26 12:39:51;;;;;;;;;;;;;;;;;;;;;
2022/12/26 12:50:14;;;;;;;;;;;;;;;;;;;;;
2022/12/26 13:25:42;;;;;;;;;;;;;;;;;;;;;
2022/12/26 13:45:48;;;;;;;;;2.00;1.00;;;;;14.37;100.00;101501.03;4767780;23;45343;-75
2022/12/26 13:48:14;;;;;;;;;0.67;0.67;;;;;14.41;100.00;101514.19;5003074;28;46263;-73
2022/12/26 13:50:52;;;;;;;;;4.00;1.67;;;;;14.44;100.00;101513.75;5002446;28;46065;-75
2022/12/26 13:53:23;;;;;;;;;1.00;1.00;;;;;14.43;100.00;101508.44;4986875;28;45726;-74
2022/12/26 13:56:10;;;;;;;;;2.00;1.00;;;;;14.40;100.00;101522.66;5008034;28;45665;-75
2022/12/26 13:58:41;;;;;;;;;1.00;1.00;;;;;14.41;100.00;101522.47;5005416;28;47093;-76
2022/12/26 14:01:26;;;;;;;;;2.33;1.00;;;;;14.36;100.00;101526.94;5003499;28;45888;-75
2022/12/26 14:03:57;;;;;;;;;3.33;1.67;;;;;14.38;100.00;101542.22;5009995;28;45688;-75
2022/12/26 14:06:39;;;;;;;;;3.00;1.33;;;;;14.27;100.00;101545.63;5012088;28;45510;-74
2022/12/26 14:09:19;;;;;;;;;0.67;0.67;;;;;14.23;100.00;101545.19;5007016;28;46261;-76
2022/12/26 14:11:48;;;;;;;;;1.00;1.00;;;;;14.15;100.00;101553.72;5017109;28;45852;-74
2022/12/26 14:14:38;;;;;;;;;0.33;0.33;;;;;14.09;100.00;101549.03;5013838;28;45665;-75
2022/12/26 14:17:28;;;;;;;;;0.33;0.33;;;;;14.00;100.00;101566.88;5002477;28;45907;-75
2022/12/26 14:20:18;;;;;;;;;2.00;0.00;;;;;13.91;100.00;101564.31;5006543;28;47123;-74
2022/12/26 14:22:49;;;;;;;;;0.00;0.00;;;;;13.87;100.00;101568.53;5019407;28;45410;-74
2022/12/26 14:25:27;;;;;;;;;0.00;0.00;;;;;13.87;100.00;101567.69;5002785;28;45748;-75
2022/12/26 14:28:17;;;;;;;;;1.33;1.33;;;;;13.89;100.00;101576.59;4991907;28;46234;-75
2022/12/26 14:30:53;;;;;;;;;3.00;1.00;;;;;13.86;100.00;101583.41;4980530;28;47038;-76
2022/12/26 14:33:39;;;;;;;;;0.33;0.00;;;;;13.86;100.00;101593.56;4999144;28;45771;-75
2022/12/26 14:36:23;;;;;;;;;0.00;0.00;;;;;13.82;100.00;101590.38;5004775;28;45653;-76
2022/12/26 14:39:27;;;;;;;;;1.00;0.00;;;;;13.76;100.00;101592.06;5013734;28;45434;-75
2022/12/26 14:44:49;;;;;;;;;1.67;1.00;;;;;13.66;100.00;101610.06;5000018;28;45435;-75
2022/12/26 14:47:35;;;;;;;;;1.00;0.00;;;;;13.54;100.00;101607.91;5014540;28;45890;-76
2022/12/26 14:50:39;;;;;;;;;0.67;0.67;;;;;13.54;100.00;101609.81;4993672;28;46025;-76
2022/12/26 14:53:29;;;;;;;;;0.67;0.00;;;;;13.52;100.00;101606.44;5008475;28;46618;-76
2022/12/26 14:56:09;;;;;;;;;11.00;9.67;;;;;13.49;100.00;101620.59;4998377;28;45700;-77
2022/12/26 14:58:45;;;;;;;;;7.00;7.00;;;;;13.42;100.00;101623.34;4994171;28;45635;-77
2022/12/26 15:01:17;;;;;;;;;21.67;17.33;;;;;13.38;100.00;101631.19;5006082;28;46362;-75
2022/12/26 15:03:52;;;;;;;;;29.33;26.33;;;;;13.37;100.00;101634.16;5003851;28;46365;-75
2022/12/26 15:06:17;;;;;;;;;2.67;2.67;;;;;13.31;100.00;101643.19;4972046;28;45778;-76
2022/12/26 15:09:09;;;;;;;;;2.33;2.33;;;;;13.18;100.00;101655.00;4986335;28;45773;-76
2022/12/26 15:12:09;;;;;;;;;4.00;1.67;;;;;13.06;100.00;101651.97;5002845;28;45784;-76
2022/12/26 15:15:02;;;;;;;;;7.67;7.67;;;;;13.00;100.00;101666.56;5009976;28;46450;-75
2022/12/26 15:17:45;;;;;;;;;3.00;0.33;;;;;12.96;100.00;101674.34;5010912;28;45343;-75
2022/12/26 15:20:13;;;;;;;;;2.00;2.00;;;;;12.86;100.00;101671.13;5006394;28;45730;-75
2022/12/26 15:23:07;;;;;;;;;2.67;2.67;;;;;12.74;100.00;101676.34;5011732;28;45910;-74
2022/12/26 15:25:52;;;;;;;;;4.33;4.33;;;;;12.59;100.00;101697.59;5007080;28;45538;-74
2022/12/26 15:28:38;;;;;;;;;1.00;1.00;;;;;12.49;100.00;101684.19;5000184;28;45370;-74
2022/12/26 15:31:25;;;;;;;;;3.67;2.00;;;;;12.30;100.00;101700.28;4984528;28;45843;-76
2022/12/26 15:33:59;;;;;;;;;0.67;0.67;;;;;12.18;100.00;101699.13;5013208;28;45596;-77
2022/12/26 15:37:01;;;;;;;;;4.33;3.00;;;;;12.10;100.00;101711.09;5003008;28;45513;-75
2022/12/26 15:39:36;;;;;;;;;1.00;1.00;;;;;12.04;100.00;101720.13;4990640;28;45369;-76
2022/12/26 15:42:15;;;;;;;;;0.67;0.67;;;;;11.98;100.00;101726.41;5007988;28;45653;-76
2022/12/26 15:45:16;;;;;;;;;2.33;2.00;;;;;11.93;100.00;101731.63;4996236;28;45932;-75
2022/12/26 15:47:56;;;;;;;;;1.33;1.00;;;;;11.80;100.00;101727.66;4988100;28;47705;-76
2022/12/26 15:50:29;;;;;;;;;1.00;1.00;;;;;11.66;100.00;101736.75;5010375;28;45735;-75
2022/12/26 15:53:09;;;;;;;;;1.00;1.00;;;;;11.61;100.00;101740.09;4997901;28;45387;-74
2022/12/26 15:55:59;;;;;;;;;3.00;1.00;;;;;11.58;100.00;101745.13;5012339;28;45486;-75
2022/12/26 15:59:00;;;;;;;;;4.00;3.00;;;;;11.42;100.00;101741.53;5012585;28;45645;-75
2022/12/26 16:01:35;;;;;;;;;3.00;1.00;;;;;11.38;100.00;101745.72;5012649;28;45700;-75
2022/12/26 16:04:05;;;;;;;;;2.67;1.33;;;;;11.36;100.00;101749.69;4994690;28;45344;-75
2022/12/26 16:06:59;;;;;;;;;34.33;30.67;;;;;11.30;100.00;101760.38;4996985;28;45881;-75
2022/12/26 16:09:36;;;;;;;;;7.33;4.00;;;;;11.26;100.00;101766.44;5009340;28;45446;-76
2022/12/26 16:12:15;;;;;;;;;0.00;0.00;;;;;11.21;100.00;101755.16;4996809;28;45506;-75
2022/12/26 16:14:42;;;;;;;;;6.33;2.33;;;;;11.20;100.00;101759.81;5002520;28;45858;-75
2022/12/26 16:17:13;;;;;;;;;1.67;1.67;;;;;11.20;100.00;101776.28;5004786;28;45480;-78
2022/12/26 16:19:40;;;;;;;;;3.67;2.00;;;;;11.20;100.00;101778.19;4997273;28;45531;-76
2022/12/26 16:24:54;;;;;;;;;5.33;3.00;;;;;10.99;100.00;101767.91;4999182;28;45375;-74
2022/12/26 16:27:23;;;;;;;;;6.33;4.33;;;;;11.11;100.00;101794.72;5004262;28;45719;-75
2022/12/26 16:29:55;;;;;;;;;4.33;3.00;;;;;11.01;100.00;101791.41;5001108;28;46497;-77
2022/12/26 16:32:28;;;;;;;;;1.00;1.00;;;;;11.04;100.00;101802.00;5012129;28;45922;-74
2022/12/26 16:34:54;;;;;;;;;3.67;2.67;;;;;10.97;100.00;101798.28;5003090;28;45316;-75
2022/12/26 16:37:22;;;;;;;;;2.67;2.67;;;;;10.92;100.00;101803.50;5009590;28;45707;-76
2022/12/26 16:40:17;;;;;;;;;2.00;2.00;;;;;10.76;100.00;101799.00;5005402;28;45569;-76
2022/12/26 16:43:13;;;;;;;;;3.33;1.33;;;;;10.76;100.00;101808.09;4993449;28;45450;-75
2022/12/26 16:45:40;;;;;;;;;2.67;1.00;;;;;10.75;100.00;101822.84;4999243;28;45799;-78
2022/12/26 16:48:08;;;;;;;;;4.00;3.00;;;;;10.68;100.00;101815.53;5007843;28;45749;-76
2022/12/26 16:50:43;;;;;;;;;4.33;3.00;;;;;10.60;100.00;101824.69;5012574;28;46259;-78
2022/12/26 16:53:10;;;;;;;;;4.67;2.00;;;;;10.56;100.00;101818.69;5011334;28;45772;-75
2022/12/26 16:55:42;;;;;;;;;5.00;4.00;;;;;10.53;100.00;101831.94;5005775;28;45429;-77
2022/12/26 16:58:15;;;;;;;;;2.00;2.00;;;;;10.48;100.00;101828.84;4978256;28;47532;-76
2022/12/26 17:00:47;;;;;;;;;5.00;4.33;;;;;10.40;100.00;101847.09;4976836;28;45515;-78
2022/12/26 17:03:51;;;;;;;;;7.67;4.00;;;;;10.38;100.00;101848.31;4996178;28;45380;-76
2022/12/26 17:06:25;;;;;;;;;12.33;12.00;;;;;10.36;100.00;101853.09;4978520;28;45581;-83
2022/12/26 17:08:51;;;;;;;;;4.00;4.00;;;;;10.31;100.00;101859.09;4982268;28;46580;-83
2022/12/26 17:11:26;;;;;;;;;9.00;9.00;;;;;10.25;100.00;101865.28;4992661;28;48334;-77
2022/12/26 17:13:53;;;;;;;;;6.00;3.67;;;;;10.17;100.00;101860.72;4997476;28;45670;-77
2022/12/26 17:16:22;;;;;;;;;8.00;8.00;;;;;10.23;100.00;101870.09;4999014;28;45322;-75
2022/12/26 17:18:51;;;;;;;;;6.33;5.33;;;;;10.19;100.00;101885.19;4999543;28;45388;-77
2022/12/26 17:21:24;;;;;;;;;4.00;3.00;;;;;10.15;100.00;101878.34;5001286;28;46563;-75
2022/12/26 17:24:08;;;;;;;;;5.00;4.00;;;;;10.08;100.00;101886.44;4989473;28;45400;-76
2022/12/26 17:26:36;;;;;;;;;5.67;5.00;;;;;10.05;100.00;101890.41;5007975;28;45547;-76
2022/12/26 17:29:01;;;;;;;;;5.67;4.00;;;;;10.03;100.00;101894.34;5009993;28;45367;-77
2022/12/26 17:31:33;;;;;;;;;8.67;6.00;;;;;10.01;100.00;101891.78;5000364;28;45320;-74
2022/12/26 17:34:04;;;;;;;;;4.00;3.00;;;;;9.98;100.00;101903.09;4998281;28;45511;-77
2022/12/26 17:36:32;;;;;;;;;5.00;3.33;;;;;9.98;100.00;101903.09;4997919;28;45408;-81
2022/12/26 17:39:11;;;;;;;;;3.00;3.00;;;;;9.93;100.00;101915.63;5001664;28;45771;-79
2022/12/26 17:41:49;;;;;;;;;4.67;3.67;;;;;9.86;100.00;101915.47;4998829;28;46885;-78
2022/12/26 17:44:41;;;;;;;;;4.00;4.00;;;;;9.80;100.00;101925.22;4999485;28;45439;-78
2022/12/26 17:47:27;;;;;;;;;5.00;4.00;;;;;9.77;100.00;101924.75;4987158;28;45317;-76
2022/12/26 17:49:54;;;;;;;;;4.00;3.00;;;;;9.75;100.00;101932.28;4983349;28;45676;-78
2022/12/26 17:52:26;;;;;;;;;4.00;4.00;;;;;9.68;100.00;101926.63;4975889;28;47070;-81
2022/12/26 17:54:52;;;;;;;;;6.00;5.00;;;;;9.67;100.00;101934.00;4982752;28;45355;-79
2022/12/26 17:57:20;;;;;;;;;4.00;4.00;;;;;9.65;100.00;101941.53;4968814;28;45525;-78
2022/12/26 17:59:47;;;;;;;;;5.00;3.67;;;;;9.62;100.00;101938.28;4970759;28;45520;-80
2022/12/26 18:02:12;;;;;;;;;4.67;3.67;;;;;9.59;100.00;101947.69;4999115;28;46448;-77
2022/12/26 18:04:38;;;;;;;;;8.33;5.33;;;;;9.56;100.00;101959.00;4995154;28;45442;-77
2022/12/26 18:07:05;;;;;;;;;2.33;2.33;;;;;9.56;100.00;101956.25;4994749;28;45402;-76
2022/12/26 18:09:31;;;;;;;;;8.33;6.00;;;;;9.51;100.00;101940.34;4993952;28;45395;-76
2022/12/26 18:11:56;;;;;;;;;12.33;10.00;;;;;9.50;100.00;101954.22;4995023;28;46396;-76
2022/12/26 18:14:22;;;;;;;;;13.67;9.67;;;;;9.47;100.00;101947.19;4995271;28;45510;-76
2022/12/26 18:16:50;;;;;;;;;7.00;5.67;;;;;9.49;100.00;101956.09;5000029;28;45512;-76
2022/12/26 18:19:18;;;;;;;;;8.67;5.67;;;;;9.50;100.00;101965.16;5000833;28;45399;-75
2022/12/26 18:21:44;;;;;;;;;5.00;3.00;;;;;9.46;100.00;101972.00;4991532;28;45763;-75
2022/12/26 18:24:09;;;;;;;;;8.67;7.33;;;;;9.44;100.00;101965.84;4990763;28;45688;-75
2022/12/26 18:26:35;;;;;;;;;8.67;6.67;;;;;9.44;100.00;101976.81;4983706;28;45748;-75
2022/12/26 18:29:02;;;;;;;;;6.00;5.67;;;;;9.42;100.00;101973.41;4989264;28;46021;-76
2022/12/26 18:31:27;;;;;;;;;4.33;4.00;;;;;9.40;100.00;101980.91;4995583;28;45428;-76
2022/12/26 18:33:54;;;;;;;;;6.33;6.00;;;;;9.31;100.00;101971.84;4987032;28;46287;-76
2022/12/26 18:36:25;;;;;;;;;8.67;7.67;;;;;9.32;100.00;101977.13;4977160;28;45501;-76
2022/12/26 18:38:50;;;;;;;;;11.67;10.67;;;;;9.32;100.00;101977.13;4977254;28;45729;-76
2022/12/26 18:41:18;;;;;;;;;8.00;7.00;;;;;9.29;100.00;101974.75;4961381;28;47652;-76
2022/12/26 18:43:44;;;;;;;;;11.00;7.33;;;;;9.31;100.00;101985.53;4980471;28;45409;-75
2022/12/26 18:46:18;;;;;;;;;9.67;8.33;;;;;9.27;100.00;101990.50;4997280;28;45395;-78
2022/12/26 18:48:45;;;;;;;;;11.00;9.67;;;;;9.27;100.00;101992.38;5002100;28;45688;-76
2022/12/26 18:51:11;;;;;;;;;10.67;9.00;;;;;9.23;100.00;101986.38;5005723;28;45940;-75
2022/12/26 18:53:36;;;;;;;;;6.33;6.33;;;;;9.21;100.00;101993.03;5005450;28;45910;-76
2022/12/26 18:56:02;;;;;;;;;10.33;7.00;;;;;9.21;100.00;101996.66;4990701;28;45503;-79
2022/12/26 18:58:27;;;;;;;;;8.00;6.67;;;;;9.18;100.00;102005.19;5007448;28;45704;-78
2022/12/26 19:00:53;;;;;;;;;11.33;9.00;;;;;9.16;100.00;102009.97;5007888;28;46037;-80
2022/12/26 19:03:18;;;;;;;;;10.67;9.33;;;;;9.10;100.00;102014.25;4986649;28;45532;-79
2022/12/26 19:05:44;;;;;;;;;7.33;7.33;;;;;9.01;100.00;101998.81;5006202;28;45976;-80
2022/12/26 19:08:10;;;;;;;;;8.00;8.00;;;;;9.06;100.00;102003.81;4994935;28;45711;-80
2022/12/26 19:10:36;;;;;;;;;19.00;12.33;;;;;9.08;100.00;102010.81;5022806;28;45460;-77
2022/12/26 19:13:03;;;;;;;;;13.00;10.00;;;;;9.09;100.00;102012.53;5012950;28;45359;-75
2022/12/26 19:15:34;;;;;;;;;12.67;12.67;;;;;9.06;100.00;102012.03;5007843;28;45385;-75
2022/12/26 19:18:01;;;;;;;;;16.33;12.00;;;;;9.09;100.00;102014.44;4996864;28;46182;-75
2022/12/26 19:20:27;;;;;;;;;16.33;12.67;;;;;9.08;100.00;102024.50;5004151;28;46515;-75
2022/12/26 19:22:53;;;;;;;;;16.00;13.00;;;;;9.07;100.00;102020.06;4997623;28;45505;-74
2022/12/26 19:25:21;;;;;;;;;11.67;8.67;;;;;9.07;100.00;102021.94;4999120;28;45350;-75
2022/12/26 19:27:48;;;;;;;;;11.33;10.67;;;;;9.01;100.00;102015.22;4997658;28;45895;-75
2022/12/26 19:30:15;;;;;;;;;8.67;7.67;;;;;9.08;100.00;102020.91;4998532;28;46513;-76
2022/12/26 19:32:42;;;;;;;;;9.00;9.00;;;;;9.07;100.00;102024.66;4998465;28;45500;-76
2022/12/26 19:35:08;;;;;;;;;8.33;8.00;;;;;9.06;100.00;102028.44;5000100;28;45687;-76
2022/12/26 19:37:33;;;;;;;;;13.33;12.33;;;;;9.05;100.00;102026.72;4999500;28;47071;-78
2022/12/26 19:39:59;;;;;;;;;6.33;6.33;;;;;9.00;100.00;102019.88;5007531;28;45714;-76
2022/12/26 19:42:24;;;;;;;;;6.67;6.67;;;;;8.98;100.00;102026.50;5008926;28;45481;-78
2022/12/26 19:44:50;;;;;;;;;10.00;9.67;;;;;8.97;100.00;102031.16;5008009;28;45261;-77
2022/12/26 19:47:15;;;;;;;;;12.67;10.00;;;;;8.93;100.00;102021.56;5007297;28;45320;-77
2022/12/26 19:49:42;;;;;;;;;39.00;28.33;;;;;8.98;100.00;102037.47;5002854;28;46310;-78
2022/12/26 19:52:09;;;;;;;;;16.00;12.33;;;;;8.99;100.00;102039.19;5016048;28;45434;-77
2022/12/26 19:54:34;;;;;;;;;12.67;11.00;;;;;8.98;100.00;102052.03;4987322;28;45458;-75
2022/12/26 19:57:00;;;;;;;;;20.00;18.67;;;;;8.91;100.00;102041.91;5011881;28;45273;-76
2022/12/26 19:59:25;;;;;;;;;20.00;16.33;;;;;8.97;100.00;102053.03;5007248;28;45536;-77
2022/12/26 20:01:50;;;;;;;;;36.00;28.33;;;;;8.96;100.00;102059.53;5011595;28;45433;-76
2022/12/26 20:04:16;;;;;;;;;108.50;97.00;;;;;8.95;100.00;102055.09;5008737;28;45601;-76
2022/12/26 20:06:41;;;;;;;;;39.00;32.25;;;;;8.94;100.00;102058.00;5013442;28;45319;-76
2022/12/26 20:09:11;;;;;;;;;67.25;52.00;;;;;8.94;100.00;102072.53;5012103;28;46273;-76
2022/12/26 20:11:43;;;;;;;;;68.25;50.00;;;;;8.94;100.00;102080.72;5014830;28;45425;-76
2022/12/26 20:14:12;;;;;;;;;22.33;18.00;;;;;8.79;100.00;102063.22;5012822;28;45794;-79
2022/12/26 20:16:38;;;;;;;;;39.67;31.33;;;;;8.92;100.00;102084.63;4996660;28;45439;-76
2022/12/26 20:19:04;;;;;;;;;36.00;28.67;;;;;8.90;100.00;102084.81;5009321;28;46183;-77
2022/12/26 20:21:29;;;;;;;;;33.00;29.00;;;;;8.89;100.00;102088.59;4996541;28;45340;-78
2022/12/26 20:23:59;;;;;;;;;32.67;22.33;;;;;8.90;100.00;102092.16;4998190;28;45459;-78
2022/12/26 20:26:25;;;;;;;;;27.33;24.00;;;;;8.84;100.00;102086.31;4999733;28;45490;-77
2022/12/26 20:28:54;;;;;;;;;28.00;20.33;;;;;8.82;100.00;102088.38;4996283;28;45660;-76
2022/12/26 20:31:20;;;;;;;;;19.00;14.33;;;;;8.81;100.00;102097.59;5002473;28;45409;-76
2022/12/26 20:33:48;;;;;;;;;23.00;18.67;;;;;8.80;100.00;102092.28;4988660;28;45368;-75
2022/12/26 20:36:20;;;;;;;;;20.67;19.00;;;;;8.79;100.00;102088.69;5004568;28;45287;-75
2022/12/26 20:38:49;;;;;;;;;24.33;19.33;;;;;8.80;100.00;102095.03;5005958;28;45473;-78
2022/12/26 20:41:15;;;;;;;;;27.67;22.67;;;;;8.76;100.00;102093.66;5006212;28;45385;-76
2022/12/26 20:43:40;;;;;;;;;34.33;28.00;;;;;8.76;100.00;102099.13;5008627;28;45376;-77
2022/12/26 20:46:14;;;;;;;;;19.00;16.00;;;;;8.72;100.00;102108.66;5008431;28;45632;-76
2022/12/26 20:48:40;;;;;;;;;19.33;18.00;;;;;8.73;100.00;102116.72;5011108;28;45686;-76
2022/12/26 20:51:09;;;;;;;;;21.33;15.33;;;;;8.71;100.00;102112.41;5009745;28;45444;-76
2022/12/26 20:53:34;;;;;;;;;18.67;17.67;;;;;8.69;100.00;102111.72;5014256;28;45436;-76
2022/12/26 20:56:01;;;;;;;;;18.00;18.00;;;;;8.68;100.00;102108.13;5011083;28;45533;-75
2022/12/26 20:58:28;;;;;;;;;16.33;15.33;;;;;8.69;100.00;102114.47;5012174;28;46646;-75
2022/12/26 21:00:59;;;;;;;;;27.00;24.33;;;;;8.65;100.00;102116.66;5012090;28;45487;-76
2022/12/26 21:03:26;;;;;;;;;16.00;15.67;;;;;8.55;100.00;102113.16;5000971;28;45854;-76
2022/12/26 21:05:52;;;;;;;;;19.00;17.67;;;;;8.55;100.00;102111.31;5009115;28;45414;-76
2022/12/26 21:08:18;;;;;;;;;21.33;17.67;;;;;8.55;100.00;102114.03;5014519;28;46534;-76
2022/12/26 21:10:44;;;;;;;;;22.00;20.67;;;;;8.55;100.00;102129.56;5015412;28;45632;-76
2022/12/26 21:13:10;;;;;;;;;13.00;10.33;;;;;8.52;100.00;102121.69;4997470;28;45697;-76
2022/12/26 21:15:35;;;;;;;;;17.00;15.33;;;;;8.55;100.00;102135.91;5013698;28;45439;-75
2022/12/26 21:18:02;;;;;;;;;13.33;12.00;;;;;8.52;100.00;102125.31;5014111;28;46265;-76
2022/12/26 21:20:28;;;;;;;;;15.00;13.00;;;;;8.42;100.00;102113.59;5011931;28;45426;-75
2022/12/26 21:22:53;;;;;;;;;20.00;15.67;;;;;8.42;100.00;102130.00;5013784;28;45730;-76
2022/12/26 21:25:19;;;;;;;;;12.67;8.67;;;;;8.48;100.00;102143.91;4994914;28;45751;-76
2022/12/26 21:27:45;;;;;;;;;11.00;11.00;;;;;8.45;100.00;102141.47;5002049;28;45831;-75
2022/12/26 21:30:12;;;;;;;;;16.33;14.33;;;;;8.44;100.00;102155.31;5014497;28;45651;-77
2022/12/26 21:32:37;;;;;;;;;19.33;17.67;;;;;8.42;100.00;102154.59;4989635;28;45475;-77
2022/12/26 21:35:03;;;;;;;;;15.00;11.33;;;;;8.42;100.00;102162.78;5005986;28;45377;-76
2022/12/26 21:40:12;;;;;;;;;13.33;9.00;;;;;8.41;100.00;102164.69;5006416;28;45721;-76
2022/12/26 21:42:37;;;;;;;;;10.67;9.00;;;;;8.39;100.00;102169.44;5001493;28;45577;-76
2022/12/26 21:45:03;;;;;;;;;17.00;11.67;;;;;8.40;100.00;102175.78;5009550;28;46022;-77
2022/12/26 21:47:29;;;;;;;;;11.33;9.00;;;;;8.37;100.00;102173.34;4983410;28;47004;-76
2022/12/26 21:49:54;;;;;;;;;12.33;10.00;;;;;8.38;100.00;102172.31;5000254;28;45816;-76
2022/12/26 21:52:19;;;;;;;;;8.33;8.00;;;;;8.36;100.00;102174.38;5009872;28;45424;-76
2022/12/26 21:57:33;;;;;;;;;9.00;8.00;;;;;8.36;100.00;102177.94;5007351;28;45705;-75
2022/12/26 21:59:59;;;;;;;;;17.33;13.67;;;;;8.34;100.00;102179.13;5001397;28;45459;-76
2022/12/26 22:05:20;;;;;;;;;11.00;6.67;;;;;8.34;100.00;102170.91;5004091;28;45440;-74
2022/12/26 22:07:46;;;;;;;;;9.33;8.00;;;;;8.30;100.00;102182.19;5013425;28;45463;-75
2022/12/26 22:12:55;;;;;;;;;16.67;12.33;;;;;8.28;100.00;102176.03;5004453;28;45404;-74
2022/12/26 22:12:58;;;;;;;;;9.00;9.00;;;;;8.30;100.00;102181.31;4999355;28;46511;-76
2022/12/26 22:18:08;;;;;;;;;14.00;11.67;;;;;8.24;100.00;102185.53;4997938;28;45735;-76